sensor_id;sensor_type;location;lat;lon;timestamp;P1;durP1;ratioP1;P2;durP2;ratioP2
51560;SDS011;37654;51.262;17.058;2022-12-13T00:00:40;22.65;;;13.07;;
51560;SDS011;37654;51.262;17.058;2022-12-13T00:03:06;25.83;;;13.30;;
51560;SDS011;37654;51.262;17.058;2022-12-13T00:05:31;27.50;;;13.65;;
51560;SDS011;37654;51.262;17.058;2022-12-13T00:07:58;22.10;;;12.55;;
51560;SDS011;37654;51.262;17.058;2022-12-13T00:10:24;24.90;;;13.88;;
51560;SDS011;37654;51.262;17.058;2022-12-13T00:12:49;24.50;;;12.57;;
51560;SDS011;37654;51.262;17.058;2022-12-13T00:15:15;24.08;;;14.15;;
51560;SDS011;37654;51.262;17.058;2022-12-13T00:17:40;24.20;;;13.30;;
51560;SDS011;37654;51.262;17.058;2022-12-13T00:20:06;25.35;;;13.57;;
51560;SDS011;37654;51.262;17.058;2022-12-13T00:22:31;25.50;;;14.15;;
51560;SDS011;37654;51.262;17.058;2022-12-13T00:24:57;22.95;;;14.10;;
51560;SDS011;37654;51.262;17.058;2022-12-13T00:27:22;22.75;;;14.00;;
51560;SDS011;37654;51.262;17.058;2022-12-13T00:29:48;22.75;;;13.40;;
51560;SDS011;37654;51.262;17.058;2022-12-13T00:32:14;24.90;;;14.75;;
51560;SDS011;37654;51.262;17.058;2022-12-13T00:34:39;28.17;;;15.85;;
51560;SDS011;37654;51.262;17.058;2022-12-13T00:37:05;20.77;;;13.40;;
51560;SDS011;37654;51.262;17.058;2022-12-13T00:39:30;23.27;;;12.82;;
51560;SDS011;37654;51.262;17.058;2022-12-13T00:41:56;23.15;;;13.55;;
51560;SDS011;37654;51.262;17.058;2022-12-13T00:44:22;24.00;;;14.20;;
51560;SDS011;37654;51.262;17.058;2022-12-13T00:46:47;23.73;;;13.45;;
51560;SDS011;37654;51.262;17.058;2022-12-13T00:49:15;24.25;;;14.00;;
51560;SDS011;37654;51.262;17.058;2022-12-13T00:51:41;25.83;;;13.68;;
51560;SDS011;37654;51.262;17.058;2022-12-13T00:54:07;25.75;;;13.82;;
51560;SDS011;37654;51.262;17.058;2022-12-13T00:56:34;23.60;;;13.80;;
51560;SDS011;37654;51.262;17.058;2022-12-13T00:59:01;27.48;;;14.07;;
51560;SDS011;37654;51.262;17.058;2022-12-13T01:01:28;26.60;;;15.25;;
51560;SDS011;37654;51.262;17.058;2022-12-13T01:03:56;25.10;;;13.55;;
51560;SDS011;37654;51.262;17.058;2022-12-13T01:08:59;26.35;;;13.85;;
51560;SDS011;37654;51.262;17.058;2022-12-13T01:11:25;23.70;;;13.15;;
51560;SDS011;37654;51.262;17.058;2022-12-13T01:13:51;21.50;;;12.60;;
51560;SDS011;37654;51.262;17.058;2022-12-13T01:16:16;22.95;;;13.07;;
51560;SDS011;37654;51.262;17.058;2022-12-13T01:18:42;22.15;;;12.57;;
51560;SDS011;37654;51.262;17.058;2022-12-13T01:23:39;21.63;;;11.48;;
51560;SDS011;37654;51.262;17.058;2022-12-13T01:26:06;22.08;;;11.40;;
51560;SDS011;37654;51.262;17.058;2022-12-13T01:28:33;24.65;;;12.82;;
51560;SDS011;37654;51.262;17.058;2022-12-13T01:31:00;19.63;;;11.32;;
51560;SDS011;37654;51.262;17.058;2022-12-13T01:33:28;21.50;;;12.32;;
51560;SDS011;37654;51.262;17.058;2022-12-13T01:35:54;20.48;;;11.13;;
51560;SDS011;37654;51.262;17.058;2022-12-13T01:38:20;21.95;;;10.85;;
51560;SDS011;37654;51.262;17.058;2022-12-13T01:40:47;22.08;;;11.65;;
51560;SDS011;37654;51.262;17.058;2022-12-13T01:43:14;18.27;;;11.13;;
51560;SDS011;37654;51.262;17.058;2022-12-13T01:45:41;19.90;;;10.80;;
51560;SDS011;37654;51.262;17.058;2022-12-13T01:48:12;20.98;;;11.82;;
51560;SDS011;37654;51.262;17.058;2022-12-13T01:50:42;20.70;;;11.00;;
51560;SDS011;37654;51.262;17.058;2022-12-13T01:53:12;20.65;;;10.77;;
51560;SDS011;37654;51.262;17.058;2022-12-13T01:55:41;20.00;;;10.88;;
51560;SDS011;37654;51.262;17.058;2022-12-13T01:58:10;21.00;;;11.20;;
51560;SDS011;37654;51.262;17.058;2022-12-13T02:00:36;19.13;;;10.25;;
51560;SDS011;37654;51.262;17.058;2022-12-13T02:03:02;19.55;;;10.52;;
51560;SDS011;37654;51.262;17.058;2022-12-13T02:05:35;19.30;;;9.60;;
51560;SDS011;37654;51.262;17.058;2022-12-13T02:08:05;18.73;;;9.75;;
51560;SDS011;37654;51.262;17.058;2022-12-13T02:10:33;16.42;;;8.73;;
51560;SDS011;37654;51.262;17.058;2022-12-13T02:12:58;18.25;;;9.98;;
51560;SDS011;37654;51.262;17.058;2022-12-13T02:15:23;19.90;;;9.95;;
51560;SDS011;37654;51.262;17.058;2022-12-13T02:23:33;16.90;;;8.95;;
51560;SDS011;37654;51.262;17.058;2022-12-13T02:29:20;17.48;;;9.68;;
51560;SDS011;37654;51.262;17.058;2022-12-13T02:39:43;18.30;;;9.60;;
51560;SDS011;37654;51.262;17.058;2022-12-13T02:42:24;20.85;;;9.93;;
51560;SDS011;37654;51.262;17.058;2022-12-13T02:45:02;18.58;;;10.25;;
51560;SDS011;37654;51.262;17.058;2022-12-13T02:47:33;19.80;;;10.15;;
51560;SDS011;37654;51.262;17.058;2022-12-13T02:50:01;20.67;;;10.35;;
51560;SDS011;37654;51.262;17.058;2022-12-13T02:52:30;18.05;;;10.13;;
51560;SDS011;37654;51.262;17.058;2022-12-13T02:54:56;20.45;;;11.05;;
51560;SDS011;37654;51.262;17.058;2022-12-13T03:00:25;22.20;;;10.45;;
51560;SDS011;37654;51.262;17.058;2022-12-13T03:03:45;21.05;;;10.35;;
51560;SDS011;37654;51.262;17.058;2022-12-13T03:14:53;18.20;;;10.15;;
51560;SDS011;37654;51.262;17.058;2022-12-13T03:17:24;18.20;;;10.40;;
51560;SDS011;37654;51.262;17.058;2022-12-13T03:19:51;17.83;;;9.93;;
51560;SDS011;37654;51.262;17.058;2022-12-13T03:22:17;23.17;;;10.63;;
51560;SDS011;37654;51.262;17.058;2022-12-13T03:24:43;19.85;;;11.25;;
51560;SDS011;37654;51.262;17.058;2022-12-13T03:27:09;16.67;;;9.18;;
51560;SDS011;37654;51.262;17.058;2022-12-13T03:29:35;21.60;;;11.40;;
51560;SDS011;37654;51.262;17.058;2022-12-13T03:32:00;21.20;;;10.82;;
51560;SDS011;37654;51.262;17.058;2022-12-13T03:34:26;19.45;;;10.15;;
51560;SDS011;37654;51.262;17.058;2022-12-13T03:36:51;18.90;;;11.20;;
51560;SDS011;37654;51.262;17.058;2022-12-13T03:39:17;18.20;;;10.07;;
51560;SDS011;37654;51.262;17.058;2022-12-13T03:41:43;22.63;;;11.02;;
51560;SDS011;37654;51.262;17.058;2022-12-13T03:44:08;23.45;;;12.13;;
51560;SDS011;37654;51.262;17.058;2022-12-13T03:46:35;23.60;;;13.07;;
51560;SDS011;37654;51.262;17.058;2022-12-13T03:49:00;21.40;;;12.27;;
51560;SDS011;37654;51.262;17.058;2022-12-13T03:51:26;21.00;;;10.95;;
51560;SDS011;37654;51.262;17.058;2022-12-13T03:53:51;28.30;;;14.15;;
51560;SDS011;37654;51.262;17.058;2022-12-13T03:56:17;31.48;;;15.98;;
51560;SDS011;37654;51.262;17.058;2022-12-13T03:58:42;26.15;;;14.02;;
51560;SDS011;37654;51.262;17.058;2022-12-13T04:01:09;30.23;;;13.25;;
51560;SDS011;37654;51.262;17.058;2022-12-13T04:03:36;21.42;;;11.95;;
51560;SDS011;37654;51.262;17.058;2022-12-13T04:06:03;20.10;;;11.05;;
51560;SDS011;37654;51.262;17.058;2022-12-13T04:08:29;24.73;;;12.25;;
51560;SDS011;37654;51.262;17.058;2022-12-13T04:10:54;28.27;;;12.98;;
51560;SDS011;37654;51.262;17.058;2022-12-13T04:13:20;24.70;;;13.07;;
51560;SDS011;37654;51.262;17.058;2022-12-13T04:16:00;28.55;;;14.05;;
51560;SDS011;37654;51.262;17.058;2022-12-13T04:18:26;26.75;;;13.60;;
51560;SDS011;37654;51.262;17.058;2022-12-13T04:20:52;28.63;;;14.57;;
51560;SDS011;37654;51.262;17.058;2022-12-13T04:23:17;25.75;;;13.73;;
51560;SDS011;37654;51.262;17.058;2022-12-13T04:25:43;23.50;;;12.38;;
51560;SDS011;37654;51.262;17.058;2022-12-13T04:28:08;23.65;;;12.18;;
51560;SDS011;37654;51.262;17.058;2022-12-13T04:30:34;23.35;;;11.60;;
51560;SDS011;37654;51.262;17.058;2022-12-13T04:33:00;24.05;;;12.95;;
51560;SDS011;37654;51.262;17.058;2022-12-13T04:35:26;22.42;;;11.68;;
51560;SDS011;37654;51.262;17.058;2022-12-13T04:37:51;25.80;;;12.52;;
51560;SDS011;37654;51.262;17.058;2022-12-13T04:40:17;25.02;;;12.65;;
51560;SDS011;37654;51.262;17.058;2022-12-13T04:42:42;24.58;;;12.35;;
51560;SDS011;37654;51.262;17.058;2022-12-13T04:45:08;20.95;;;11.23;;
51560;SDS011;37654;51.262;17.058;2022-12-13T04:47:38;22.50;;;11.80;;
51560;SDS011;37654;51.262;17.058;2022-12-13T04:50:04;24.48;;;12.60;;
51560;SDS011;37654;51.262;17.058;2022-12-13T04:52:30;35.53;;;13.40;;
51560;SDS011;37654;51.262;17.058;2022-12-13T04:54:55;23.98;;;12.52;;
51560;SDS011;37654;51.262;17.058;2022-12-13T04:57:20;33.55;;;14.85;;
51560;SDS011;37654;51.262;17.058;2022-12-13T04:59:46;31.05;;;14.02;;
51560;SDS011;37654;51.262;17.058;2022-12-13T05:02:11;39.45;;;17.42;;
51560;SDS011;37654;51.262;17.058;2022-12-13T05:04:37;54.38;;;22.33;;
51560;SDS011;37654;51.262;17.058;2022-12-13T05:07:03;69.20;;;26.70;;
51560;SDS011;37654;51.262;17.058;2022-12-13T05:09:28;81.53;;;28.17;;
51560;SDS011;37654;51.262;17.058;2022-12-13T05:11:54;102.60;;;35.35;;
51560;SDS011;37654;51.262;17.058;2022-12-13T05:14:19;92.60;;;32.13;;
51560;SDS011;37654;51.262;17.058;2022-12-13T05:16:45;98.82;;;32.30;;
51560;SDS011;37654;51.262;17.058;2022-12-13T05:19:10;116.47;;;38.72;;
51560;SDS011;37654;51.262;17.058;2022-12-13T05:21:35;109.65;;;38.63;;
51560;SDS011;37654;51.262;17.058;2022-12-13T05:24:01;106.60;;;39.13;;
51560;SDS011;37654;51.262;17.058;2022-12-13T05:26:27;83.25;;;29.98;;
51560;SDS011;37654;51.262;17.058;2022-12-13T05:28:56;54.17;;;22.85;;
51560;SDS011;37654;51.262;17.058;2022-12-13T05:31:22;72.18;;;27.27;;
51560;SDS011;37654;51.262;17.058;2022-12-13T05:33:47;67.25;;;24.90;;
51560;SDS011;37654;51.262;17.058;2022-12-13T05:36:12;54.03;;;22.05;;
51560;SDS011;37654;51.262;17.058;2022-12-13T05:38:38;48.17;;;18.60;;
51560;SDS011;37654;51.262;17.058;2022-12-13T05:41:04;33.10;;;17.65;;
51560;SDS011;37654;51.262;17.058;2022-12-13T05:43:30;32.22;;;16.58;;
51560;SDS011;37654;51.262;17.058;2022-12-13T05:45:55;30.85;;;15.07;;
51560;SDS011;37654;51.262;17.058;2022-12-13T05:48:20;32.22;;;15.90;;
51560;SDS011;37654;51.262;17.058;2022-12-13T05:50:46;29.77;;;14.18;;
51560;SDS011;37654;51.262;17.058;2022-12-13T05:53:11;36.70;;;18.52;;
51560;SDS011;37654;51.262;17.058;2022-12-13T05:55:37;44.15;;;19.40;;
51560;SDS011;37654;51.262;17.058;2022-12-13T05:58:03;44.60;;;20.90;;
51560;SDS011;37654;51.262;17.058;2022-12-13T06:00:28;28.17;;;14.60;;
51560;SDS011;37654;51.262;17.058;2022-12-13T06:02:54;31.38;;;15.27;;
51560;SDS011;37654;51.262;17.058;2022-12-13T06:05:20;33.58;;;16.15;;
51560;SDS011;37654;51.262;17.058;2022-12-13T06:07:45;28.00;;;14.82;;
51560;SDS011;37654;51.262;17.058;2022-12-13T06:10:11;34.95;;;16.50;;
51560;SDS011;37654;51.262;17.058;2022-12-13T06:12:36;46.20;;;23.92;;
51560;SDS011;37654;51.262;17.058;2022-12-13T06:15:03;37.60;;;20.58;;
51560;SDS011;37654;51.262;17.058;2022-12-13T06:17:30;35.80;;;16.30;;
51560;SDS011;37654;51.262;17.058;2022-12-13T06:19:56;24.25;;;12.25;;
51560;SDS011;37654;51.262;17.058;2022-12-13T06:22:22;23.58;;;12.18;;
51560;SDS011;37654;51.262;17.058;2022-12-13T06:24:47;23.65;;;11.73;;
51560;SDS011;37654;51.262;17.058;2022-12-13T06:27:13;19.40;;;10.55;;
51560;SDS011;37654;51.262;17.058;2022-12-13T06:29:38;23.55;;;11.63;;
51560;SDS011;37654;51.262;17.058;2022-12-13T06:32:04;22.20;;;11.75;;
51560;SDS011;37654;51.262;17.058;2022-12-13T06:34:31;26.52;;;13.35;;
51560;SDS011;37654;51.262;17.058;2022-12-13T06:37:00;23.98;;;11.77;;
51560;SDS011;37654;51.262;17.058;2022-12-13T06:39:30;23.85;;;13.00;;
51560;SDS011;37654;51.262;17.058;2022-12-13T06:41:56;24.67;;;12.68;;
51560;SDS011;37654;51.262;17.058;2022-12-13T06:44:22;26.13;;;13.98;;
51560;SDS011;37654;51.262;17.058;2022-12-13T06:46:47;28.17;;;13.88;;
51560;SDS011;37654;51.262;17.058;2022-12-13T06:49:12;27.10;;;12.63;;
51560;SDS011;37654;51.262;17.058;2022-12-13T06:51:38;27.35;;;12.95;;
51560;SDS011;37654;51.262;17.058;2022-12-13T06:54:03;21.15;;;11.73;;
51560;SDS011;37654;51.262;17.058;2022-12-13T06:56:29;21.52;;;11.55;;
51560;SDS011;37654;51.262;17.058;2022-12-13T06:58:55;22.27;;;11.05;;
51560;SDS011;37654;51.262;17.058;2022-12-13T07:01:21;20.60;;;11.45;;
51560;SDS011;37654;51.262;17.058;2022-12-13T07:03:46;22.67;;;12.48;;
51560;SDS011;37654;51.262;17.058;2022-12-13T07:06:13;23.58;;;12.50;;
51560;SDS011;37654;51.262;17.058;2022-12-13T07:08:41;20.35;;;11.25;;
51560;SDS011;37654;51.262;17.058;2022-12-13T07:11:11;23.10;;;12.60;;
51560;SDS011;37654;51.262;17.058;2022-12-13T07:13:38;22.13;;;12.15;;
51560;SDS011;37654;51.262;17.058;2022-12-13T07:16:04;28.10;;;13.90;;
51560;SDS011;37654;51.262;17.058;2022-12-13T07:18:30;23.05;;;13.00;;
51560;SDS011;37654;51.262;17.058;2022-12-13T07:20:55;25.58;;;13.20;;
51560;SDS011;37654;51.262;17.058;2022-12-13T07:23:20;24.35;;;12.38;;
51560;SDS011;37654;51.262;17.058;2022-12-13T07:25:50;22.63;;;11.90;;
51560;SDS011;37654;51.262;17.058;2022-12-13T07:28:18;23.83;;;11.95;;
51560;SDS011;37654;51.262;17.058;2022-12-13T07:30:45;23.10;;;12.65;;
51560;SDS011;37654;51.262;17.058;2022-12-13T07:33:11;22.92;;;12.13;;
51560;SDS011;37654;51.262;17.058;2022-12-13T07:35:36;25.77;;;13.75;;
51560;SDS011;37654;51.262;17.058;2022-12-13T07:38:03;26.55;;;13.90;;
51560;SDS011;37654;51.262;17.058;2022-12-13T07:40:29;28.33;;;13.88;;
51560;SDS011;37654;51.262;17.058;2022-12-13T07:42:57;26.33;;;13.25;;
51560;SDS011;37654;51.262;17.058;2022-12-13T07:45:23;26.73;;;12.88;;
51560;SDS011;37654;51.262;17.058;2022-12-13T07:47:48;25.42;;;13.70;;
51560;SDS011;37654;51.262;17.058;2022-12-13T07:50:14;24.92;;;13.05;;
51560;SDS011;37654;51.262;17.058;2022-12-13T07:52:40;22.67;;;12.52;;
51560;SDS011;37654;51.262;17.058;2022-12-13T07:55:06;22.77;;;13.18;;
51560;SDS011;37654;51.262;17.058;2022-12-13T07:57:33;23.75;;;12.32;;
51560;SDS011;37654;51.262;17.058;2022-12-13T07:59:59;28.20;;;12.20;;
51560;SDS011;37654;51.262;17.058;2022-12-13T08:02:24;23.25;;;11.85;;
51560;SDS011;37654;51.262;17.058;2022-12-13T08:04:50;24.58;;;11.98;;
51560;SDS011;37654;51.262;17.058;2022-12-13T08:07:16;26.60;;;13.48;;
51560;SDS011;37654;51.262;17.058;2022-12-13T08:09:42;26.67;;;13.18;;
51560;SDS011;37654;51.262;17.058;2022-12-13T08:12:08;28.02;;;14.52;;
51560;SDS011;37654;51.262;17.058;2022-12-13T08:14:33;32.17;;;16.58;;
51560;SDS011;37654;51.262;17.058;2022-12-13T08:16:59;37.42;;;16.60;;
51560;SDS011;37654;51.262;17.058;2022-12-13T08:19:25;34.95;;;15.95;;
51560;SDS011;37654;51.262;17.058;2022-12-13T08:21:50;31.80;;;16.98;;
51560;SDS011;37654;51.262;17.058;2022-12-13T08:24:16;38.58;;;17.40;;
51560;SDS011;37654;51.262;17.058;2022-12-13T08:26:43;34.40;;;16.65;;
51560;SDS011;37654;51.262;17.058;2022-12-13T08:29:08;31.20;;;16.92;;
51560;SDS011;37654;51.262;17.058;2022-12-13T08:31:34;34.65;;;18.63;;
51560;SDS011;37654;51.262;17.058;2022-12-13T08:33:59;33.50;;;17.25;;
51560;SDS011;37654;51.262;17.058;2022-12-13T08:36:25;34.10;;;15.85;;
51560;SDS011;37654;51.262;17.058;2022-12-13T08:38:55;33.30;;;16.63;;
51560;SDS011;37654;51.262;17.058;2022-12-13T08:41:22;29.13;;;15.88;;
51560;SDS011;37654;51.262;17.058;2022-12-13T08:43:48;30.63;;;15.57;;
51560;SDS011;37654;51.262;17.058;2022-12-13T08:46:14;27.60;;;15.02;;
51560;SDS011;37654;51.262;17.058;2022-12-13T08:48:40;29.00;;;13.52;;
51560;SDS011;37654;51.262;17.058;2022-12-13T08:51:07;28.58;;;13.52;;
51560;SDS011;37654;51.262;17.058;2022-12-13T08:53:38;23.88;;;12.07;;
51560;SDS011;37654;51.262;17.058;2022-12-13T08:56:04;28.10;;;13.27;;
51560;SDS011;37654;51.262;17.058;2022-12-13T08:58:31;25.67;;;12.70;;
51560;SDS011;37654;51.262;17.058;2022-12-13T09:00:57;26.92;;;12.30;;
51560;SDS011;37654;51.262;17.058;2022-12-13T09:03:22;24.08;;;12.57;;
51560;SDS011;37654;51.262;17.058;2022-12-13T09:05:48;27.10;;;12.98;;
51560;SDS011;37654;51.262;17.058;2022-12-13T09:08:16;27.10;;;13.90;;
51560;SDS011;37654;51.262;17.058;2022-12-13T09:10:42;29.13;;;14.48;;
51560;SDS011;37654;51.262;17.058;2022-12-13T09:13:07;28.60;;;15.18;;
51560;SDS011;37654;51.262;17.058;2022-12-13T09:15:37;29.83;;;14.90;;
51560;SDS011;37654;51.262;17.058;2022-12-13T09:18:03;22.02;;;11.48;;
51560;SDS011;37654;51.262;17.058;2022-12-13T09:20:29;26.45;;;12.20;;
51560;SDS011;37654;51.262;17.058;2022-12-13T09:22:54;26.10;;;11.50;;
51560;SDS011;37654;51.262;17.058;2022-12-13T09:25:20;24.40;;;11.40;;
51560;SDS011;37654;51.262;17.058;2022-12-13T09:27:45;26.85;;;13.00;;
51560;SDS011;37654;51.262;17.058;2022-12-13T09:30:11;21.60;;;11.48;;
51560;SDS011;37654;51.262;17.058;2022-12-13T09:32:40;21.98;;;11.68;;
51560;SDS011;37654;51.262;17.058;2022-12-13T09:35:06;30.67;;;13.90;;
51560;SDS011;37654;51.262;17.058;2022-12-13T09:37:32;23.88;;;10.75;;
51560;SDS011;37654;51.262;17.058;2022-12-13T09:39:58;22.15;;;11.30;;
51560;SDS011;37654;51.262;17.058;2022-12-13T09:42:25;22.98;;;12.38;;
51560;SDS011;37654;51.262;17.058;2022-12-13T09:44:54;22.42;;;11.73;;
51560;SDS011;37654;51.262;17.058;2022-12-13T09:47:28;21.95;;;12.05;;
51560;SDS011;37654;51.262;17.058;2022-12-13T09:50:12;26.15;;;12.65;;
51560;SDS011;37654;51.262;17.058;2022-12-13T09:52:43;25.95;;;12.50;;
51560;SDS011;37654;51.262;17.058;2022-12-13T09:55:31;26.67;;;12.68;;
51560;SDS011;37654;51.262;17.058;2022-12-13T09:58:04;22.75;;;11.05;;
51560;SDS011;37654;51.262;17.058;2022-12-13T10:00:33;23.30;;;11.05;;
51560;SDS011;37654;51.262;17.058;2022-12-13T10:03:00;23.05;;;11.80;;
51560;SDS011;37654;51.262;17.058;2022-12-13T10:05:36;29.20;;;13.55;;
51560;SDS011;37654;51.262;17.058;2022-12-13T10:08:06;27.52;;;13.30;;
51560;SDS011;37654;51.262;17.058;2022-12-13T10:10:33;26.95;;;11.20;;
51560;SDS011;37654;51.262;17.058;2022-12-13T10:15:43;24.65;;;10.88;;
51560;SDS011;37654;51.262;17.058;2022-12-13T10:18:38;22.35;;;11.35;;
51560;SDS011;37654;51.262;17.058;2022-12-13T10:21:38;27.17;;;12.65;;
51560;SDS011;37654;51.262;17.058;2022-12-13T10:24:04;24.95;;;13.18;;
51560;SDS011;37654;51.262;17.058;2022-12-13T10:26:51;23.67;;;11.80;;
51560;SDS011;37654;51.262;17.058;2022-12-13T10:29:18;25.17;;;11.15;;
51560;SDS011;37654;51.262;17.058;2022-12-13T10:31:44;25.30;;;11.85;;
51560;SDS011;37654;51.262;17.058;2022-12-13T10:34:19;24.65;;;12.27;;
51560;SDS011;37654;51.262;17.058;2022-12-13T10:36:45;24.50;;;11.38;;
51560;SDS011;37654;51.262;17.058;2022-12-13T10:42:10;21.92;;;11.32;;
51560;SDS011;37654;51.262;17.058;2022-12-13T10:44:37;22.48;;;10.68;;
51560;SDS011;37654;51.262;17.058;2022-12-13T10:47:13;22.42;;;9.23;;
51560;SDS011;37654;51.262;17.058;2022-12-13T10:52:22;20.08;;;9.15;;
51560;SDS011;37654;51.262;17.058;2022-12-13T10:54:51;18.55;;;9.57;;
51560;SDS011;37654;51.262;17.058;2022-12-13T10:57:18;21.00;;;9.77;;
51560;SDS011;37654;51.262;17.058;2022-12-13T10:59:44;18.80;;;10.00;;
51560;SDS011;37654;51.262;17.058;2022-12-13T11:07:53;20.58;;;9.90;;
51560;SDS011;37654;51.262;17.058;2022-12-13T11:10:23;20.05;;;10.55;;
51560;SDS011;37654;51.262;17.058;2022-12-13T11:13:02;20.33;;;10.18;;
51560;SDS011;37654;51.262;17.058;2022-12-13T11:15:31;20.58;;;11.13;;
51560;SDS011;37654;51.262;17.058;2022-12-13T11:18:02;17.65;;;9.57;;
51560;SDS011;37654;51.262;17.058;2022-12-13T11:23:03;24.63;;;11.82;;
51560;SDS011;37654;51.262;17.058;2022-12-13T11:25:35;20.38;;;10.95;;
51560;SDS011;37654;51.262;17.058;2022-12-13T11:31:17;25.63;;;12.48;;
51560;SDS011;37654;51.262;17.058;2022-12-13T11:47:13;23.38;;;10.70;;
51560;SDS011;37654;51.262;17.058;2022-12-13T11:49:43;22.40;;;10.68;;
51560;SDS011;37654;51.262;17.058;2022-12-13T11:52:13;20.60;;;10.32;;
51560;SDS011;37654;51.262;17.058;2022-12-13T11:57:38;18.73;;;9.90;;
51560;SDS011;37654;51.262;17.058;2022-12-13T12:02:52;21.27;;;9.68;;
51560;SDS011;37654;51.262;17.058;2022-12-13T12:07:50;14.80;;;7.07;;
51560;SDS011;37654;51.262;17.058;2022-12-13T12:10:32;17.80;;;8.90;;
51560;SDS011;37654;51.262;17.058;2022-12-13T12:15:31;20.10;;;9.32;;
51560;SDS011;37654;51.262;17.058;2022-12-13T12:18:00;18.70;;;10.32;;
51560;SDS011;37654;51.262;17.058;2022-12-13T12:20:40;18.15;;;10.10;;
51560;SDS011;37654;51.262;17.058;2022-12-13T12:25:58;37.65;;;14.18;;
51560;SDS011;37654;51.262;17.058;2022-12-13T12:28:38;43.70;;;16.25;;
51560;SDS011;37654;51.262;17.058;2022-12-13T12:34:02;31.77;;;14.57;;
51560;SDS011;37654;51.262;17.058;2022-12-13T13:03:45;65.95;;;22.33;;
51560;SDS011;37654;51.262;17.058;2022-12-13T13:06:15;36.83;;;15.82;;
51560;SDS011;37654;51.262;17.058;2022-12-13T13:11:28;14.90;;;6.93;;
51560;SDS011;37654;51.262;17.058;2022-12-13T13:18:52;14.60;;;6.97;;
51560;SDS011;37654;51.262;17.058;2022-12-13T13:23:48;16.85;;;8.02;;
51560;SDS011;37654;51.262;17.058;2022-12-13T13:26:40;17.00;;;9.40;;
51560;SDS011;37654;51.262;17.058;2022-12-13T13:32:00;18.05;;;8.85;;
51560;SDS011;37654;51.262;17.058;2022-12-13T13:34:35;18.42;;;7.88;;
51560;SDS011;37654;51.262;17.058;2022-12-13T13:37:03;16.10;;;7.93;;
51560;SDS011;37654;51.262;17.058;2022-12-13T13:55:53;16.10;;;8.90;;
51560;SDS011;37654;51.262;17.058;2022-12-13T14:30:44;32.45;;;15.65;;
51560;SDS011;37654;51.262;17.058;2022-12-13T14:33:20;27.25;;;13.65;;
51560;SDS011;37654;51.262;17.058;2022-12-13T14:35:54;37.20;;;16.67;;
51560;SDS011;37654;51.262;17.058;2022-12-13T14:38:25;37.78;;;18.25;;
51560;SDS011;37654;51.262;17.058;2022-12-13T14:40:59;32.78;;;16.20;;
51560;SDS011;37654;51.262;17.058;2022-12-13T14:45:56;34.70;;;17.90;;
51560;SDS011;37654;51.262;17.058;2022-12-13T14:48:24;37.00;;;18.23;;
51560;SDS011;37654;51.262;17.058;2022-12-13T14:50:50;33.53;;;17.48;;
51560;SDS011;37654;51.262;17.058;2022-12-13T14:53:24;31.48;;;16.48;;
51560;SDS011;37654;51.262;17.058;2022-12-13T14:58:53;37.08;;;17.70;;
51560;SDS011;37654;51.262;17.058;2022-12-13T15:01:30;37.13;;;20.25;;
51560;SDS011;37654;51.262;17.058;2022-12-13T15:06:46;30.88;;;17.95;;
51560;SDS011;37654;51.262;17.058;2022-12-13T15:09:18;36.08;;;19.45;;
51560;SDS011;37654;51.262;17.058;2022-12-13T15:11:43;36.05;;;19.42;;
51560;SDS011;37654;51.262;17.058;2022-12-13T15:14:19;33.95;;;19.95;;
51560;SDS011;37654;51.262;17.058;2022-12-13T15:16:48;29.27;;;16.92;;
51560;SDS011;37654;51.262;17.058;2022-12-13T15:21:52;36.35;;;18.52;;
51560;SDS011;37654;51.262;17.058;2022-12-13T15:24:20;36.30;;;18.83;;
51560;SDS011;37654;51.262;17.058;2022-12-13T15:26:48;34.75;;;18.48;;
51560;SDS011;37654;51.262;17.058;2022-12-13T15:29:15;41.72;;;20.63;;
51560;SDS011;37654;51.262;17.058;2022-12-13T15:31:42;36.35;;;19.70;;
51560;SDS011;37654;51.262;17.058;2022-12-13T15:36:54;37.70;;;18.65;;
51560;SDS011;37654;51.262;17.058;2022-12-13T15:39:23;32.22;;;17.40;;
51560;SDS011;37654;51.262;17.058;2022-12-13T15:41:49;32.45;;;17.60;;
51560;SDS011;37654;51.262;17.058;2022-12-13T15:44:22;37.35;;;17.92;;
51560;SDS011;37654;51.262;17.058;2022-12-13T15:47:04;35.05;;;16.85;;
51560;SDS011;37654;51.262;17.058;2022-12-13T15:49:40;35.42;;;19.17;;
51560;SDS011;37654;51.262;17.058;2022-12-13T15:54:38;31.27;;;15.25;;
51560;SDS011;37654;51.262;17.058;2022-12-13T15:57:11;35.58;;;17.55;;
51560;SDS011;37654;51.262;17.058;2022-12-13T15:59:39;32.28;;;16.67;;
51560;SDS011;37654;51.262;17.058;2022-12-13T16:02:16;31.00;;;15.93;;
51560;SDS011;37654;51.262;17.058;2022-12-13T16:04:46;45.05;;;17.58;;
51560;SDS011;37654;51.262;17.058;2022-12-13T16:07:20;34.30;;;17.25;;
51560;SDS011;37654;51.262;17.058;2022-12-13T16:09:56;29.85;;;17.00;;
51560;SDS011;37654;51.262;17.058;2022-12-13T16:12:23;33.17;;;17.60;;
51560;SDS011;37654;51.262;17.058;2022-12-13T16:15:05;32.22;;;18.98;;
51560;SDS011;37654;51.262;17.058;2022-12-13T16:17:39;37.15;;;20.25;;
51560;SDS011;37654;51.262;17.058;2022-12-13T16:20:07;33.15;;;17.70;;
51560;SDS011;37654;51.262;17.058;2022-12-13T16:22:36;36.70;;;17.08;;
51560;SDS011;37654;51.262;17.058;2022-12-13T16:25:02;32.63;;;17.45;;
51560;SDS011;37654;51.262;17.058;2022-12-13T16:27:28;39.17;;;21.40;;
51560;SDS011;37654;51.262;17.058;2022-12-13T16:29:54;35.90;;;18.95;;
51560;SDS011;37654;51.262;17.058;2022-12-13T16:32:19;40.33;;;21.52;;
51560;SDS011;37654;51.262;17.058;2022-12-13T16:34:44;48.63;;;25.92;;
51560;SDS011;37654;51.262;17.058;2022-12-13T16:37:10;46.67;;;23.60;;
51560;SDS011;37654;51.262;17.058;2022-12-13T16:39:36;44.83;;;23.75;;
51560;SDS011;37654;51.262;17.058;2022-12-13T16:42:02;44.28;;;24.85;;
51560;SDS011;37654;51.262;17.058;2022-12-13T16:44:35;35.25;;;19.70;;
51560;SDS011;37654;51.262;17.058;2022-12-13T16:47:02;32.30;;;17.23;;
51560;SDS011;37654;51.262;17.058;2022-12-13T16:49:32;40.85;;;20.10;;
51560;SDS011;37654;51.262;17.058;2022-12-13T16:51:57;47.28;;;24.95;;
51560;SDS011;37654;51.262;17.058;2022-12-13T16:54:23;67.75;;;33.30;;
51560;SDS011;37654;51.262;17.058;2022-12-13T16:56:50;99.47;;;52.58;;
51560;SDS011;37654;51.262;17.058;2022-12-13T16:59:17;108.60;;;55.90;;
51560;SDS011;37654;51.262;17.058;2022-12-13T17:01:45;118.13;;;64.22;;
51560;SDS011;37654;51.262;17.058;2022-12-13T17:04:11;149.68;;;72.88;;
51560;SDS011;37654;51.262;17.058;2022-12-13T17:06:38;182.55;;;81.93;;
51560;SDS011;37654;51.262;17.058;2022-12-13T17:09:04;125.07;;;57.28;;
51560;SDS011;37654;51.262;17.058;2022-12-13T17:11:30;102.43;;;47.45;;
51560;SDS011;37654;51.262;17.058;2022-12-13T17:13:57;99.13;;;46.00;;
51560;SDS011;37654;51.262;17.058;2022-12-13T17:16:23;108.15;;;52.30;;
51560;SDS011;37654;51.262;17.058;2022-12-13T17:18:49;97.45;;;48.90;;
51560;SDS011;37654;51.262;17.058;2022-12-13T17:21:15;107.50;;;52.55;;